Time;durP1;ratioP1;P1;durP2;ratioP2;P2;SDS_P1;SDS_P2;PMS_P1;PMS_P2;Temp;Humidity;BMP_temperature;BMP_pressure;BME280_temperature;BME280_humidity;BME280_pressure;Samples;Min_cycle;Max_cycle;Signal;HPM_P1;HPM_P2
2024/01/15 00:02:09;;;;;;;15.60;6.07;;;-2.20;99.90;;;;;;5054544;28;20630;-64
2024/01/15 00:04:39;;;;;;;19.53;6.60;;;-2.30;99.90;;;;;;5053608;28;20218;-64
2024/01/15 00:07:05;;;;;;;22.03;7.13;;;-2.20;99.90;;;;;;5048752;28;20243;-65
2024/01/15 00:09:31;;;;;;;14.93;6.23;;;-2.20;99.90;;;;;;5054098;28;20500;-64
2024/01/15 00:11:56;;;;;;;18.53;7.60;;;-2.20;99.90;;;;;;5054185;28;20420;-64
2024/01/15 00:14:22;;;;;;;19.30;6.00;;;-2.20;99.90;;;;;;5054443;28;20185;-64
2024/01/15 00:16:50;;;;;;;16.93;7.27;;;-2.30;99.90;;;;;;5054264;28;20257;-64
2024/01/15 00:19:16;;;;;;;26.53;8.40;;;-2.30;99.90;;;;;;5053616;28;20443;-64
2024/01/15 00:21:41;;;;;;;31.07;7.83;;;-2.30;99.90;;;;;;5046881;28;20916;-64
2024/01/15 00:24:06;;;;;;;16.97;6.80;;;-2.30;99.90;;;;;;5054120;28;20228;-64
2024/01/15 00:26:32;;;;;;;23.23;7.43;;;-2.30;99.90;;;;;;5054293;28;20534;-64
2024/01/15 00:28:57;;;;;;;27.83;8.17;;;-2.30;99.90;;;;;;5046971;28;20228;-64
2024/01/15 00:31:23;;;;;;;13.43;5.07;;;-2.30;99.90;;;;;;5054151;28;20236;-64
2024/01/15 00:33:48;;;;;;;17.23;6.50;;;-2.30;99.90;;;;;;5053675;28;20182;-64
2024/01/15 00:36:14;;;;;;;21.07;7.93;;;-2.40;99.90;;;;;;5053884;28;20700;-64
2024/01/15 00:38:40;;;;;;;15.67;6.77;;;-2.30;99.90;;;;;;5041751;28;20622;-64
2024/01/15 00:41:06;;;;;;;20.17;6.73;;;-2.30;99.90;;;;;;5053908;28;20459;-63
2024/01/15 00:43:31;;;;;;;23.03;6.97;;;-2.30;99.90;;;;;;5049518;28;20186;-64
2024/01/15 00:45:56;;;;;;;18.50;6.30;;;-2.30;99.90;;;;;;5047092;28;20185;-64
2024/01/15 00:48:22;;;;;;;18.53;6.30;;;-2.40;99.90;;;;;;5053051;28;20205;-64
2024/01/15 00:50:47;;;;;;;12.60;5.43;;;-2.40;99.90;;;;;;5053718;28;20736;-63
2024/01/15 00:53:13;;;;;;;16.97;5.47;;;-2.30;99.90;;;;;;5053056;28;20193;-64
2024/01/15 00:55:38;;;;;;;19.53;6.23;;;-2.30;99.90;;;;;;5040860;28;20273;-64
2024/01/15 00:58:04;;;;;;;16.07;7.30;;;-2.40;99.90;;;;;;5043355;28;20554;-64
2024/01/15 01:00:29;;;;;;;19.00;6.10;;;-2.40;99.90;;;;;;5045621;28;20188;-64
2024/01/15 01:02:55;;;;;;;17.20;5.97;;;-2.50;99.90;;;;;;5052816;28;20186;-64
2024/01/15 01:05:20;;;;;;;23.20;5.93;;;-2.50;99.90;;;;;;5053189;28;20232;-64
2024/01/15 01:07:46;;;;;;;15.73;6.10;;;-2.50;99.90;;;;;;5046636;28;20878;-65
2024/01/15 01:10:11;;;;;;;20.63;6.73;;;-2.50;99.90;;;;;;5053001;28;20182;-64
2024/01/15 01:12:37;;;;;;;14.53;6.17;;;-2.50;99.90;;;;;;5052855;28;20185;-64
2024/01/15 01:15:02;;;;;;;31.37;5.73;;;-2.40;99.90;;;;;;5053105;28;20627;-64
2024/01/15 01:17:28;;;;;;;23.13;6.63;;;-2.40;99.90;;;;;;5053169;28;20178;-64
2024/01/15 01:19:53;;;;;;;21.80;7.13;;;-2.40;99.90;;;;;;5052727;28;20754;-64
2024/01/15 01:22:19;;;;;;;23.03;7.20;;;-2.30;99.90;;;;;;5052819;28;20209;-64
2024/01/15 01:24:44;;;;;;;21.77;8.00;;;-2.30;99.90;;;;;;5052689;28;20193;-64
2024/01/15 01:27:10;;;;;;;14.27;5.33;;;-2.30;99.90;;;;;;5052837;28;20190;-64
2024/01/15 01:29:35;;;;;;;13.50;5.83;;;-2.30;99.90;;;;;;5044418;28;20276;-64
2024/01/15 01:32:01;;;;;;;16.80;6.30;;;-2.20;99.90;;;;;;5052481;28;20308;-64
2024/01/15 01:34:26;;;;;;;14.73;5.97;;;-2.20;99.90;;;;;;5052379;28;20182;-64
2024/01/15 01:36:52;;;;;;;12.53;5.87;;;-2.20;99.90;;;;;;5048782;28;20229;-64
2024/01/15 01:39:17;;;;;;;16.97;6.10;;;-2.20;99.90;;;;;;5043244;28;20196;-64
2024/01/15 01:41:43;;;;;;;14.10;5.77;;;-2.10;99.90;;;;;;5052601;28;20181;-64
2024/01/15 01:44:08;;;;;;;14.90;5.60;;;-2.10;99.90;;;;;;5043584;28;20190;-64
2024/01/15 01:46:39;;;;;;;15.17;5.50;;;-2.10;99.90;;;;;;5049768;28;20263;-64
2024/01/15 01:49:06;;;;;;;17.90;5.77;;;-2.00;99.90;;;;;;5052023;28;20339;-64
2024/01/15 01:51:33;;;;;;;29.73;6.73;;;-2.10;99.90;;;;;;5052503;28;20420;-64
2024/01/15 01:53:58;;;;;;;14.47;6.07;;;-2.10;99.90;;;;;;5052152;28;20428;-64
2024/01/15 01:56:24;;;;;;;14.73;5.70;;;-2.10;99.90;;;;;;5038952;28;20838;-64
2024/01/15 01:58:49;;;;;;;18.80;6.87;;;-2.10;99.90;;;;;;5036897;28;20182;-63
2024/01/15 02:01:16;;;;;;;19.83;6.23;;;-2.10;99.90;;;;;;5050764;28;20197;-64
2024/01/15 02:03:42;;;;;;;16.90;6.00;;;-2.10;99.90;;;;;;5051810;28;20181;-64
2024/01/15 02:06:08;;;;;;;15.23;6.20;;;-2.20;99.90;;;;;;5052539;28;20451;-63
2024/01/15 02:08:34;;;;;;;20.70;6.73;;;-2.20;99.90;;;;;;5046871;28;20510;-64
2024/01/15 02:11:00;;;;;;;15.73;5.97;;;-2.20;99.90;;;;;;5053237;28;20205;-64
2024/01/15 02:13:26;;;;;;;15.80;5.70;;;-2.20;99.90;;;;;;5052587;28;20451;-64
2024/01/15 02:15:51;;;;;;;12.47;5.63;;;-2.20;99.90;;;;;;5052482;28;20181;-64
2024/01/15 02:18:17;;;;;;;12.00;4.67;;;-2.20;99.90;;;;;;5051762;28;20193;-64
2024/01/15 02:20:44;;;;;;;21.97;6.67;;;-2.20;99.90;;;;;;5051999;28;20676;-64
2024/01/15 02:23:13;;;;;;;18.83;6.30;;;-2.20;99.90;;;;;;5051903;28;20268;-64
2024/01/15 02:25:46;;;;;;;16.57;6.10;;;-2.20;99.90;;;;;;5051927;28;20425;-64
2024/01/15 02:28:15;;;;;;;18.10;6.00;;;-2.20;99.90;;;;;;5043132;28;20468;-64
2024/01/15 02:30:42;;;;;;;14.87;6.57;;;-2.20;99.90;;;;;;5051933;28;20450;-64
2024/01/15 02:33:09;;;;;;;20.30;7.77;;;-2.30;99.90;;;;;;5051666;28;20411;-64
2024/01/15 02:35:37;;;;;;;16.63;5.93;;;-2.20;99.90;;;;;;5052148;28;20937;-64
2024/01/15 02:38:07;;;;;;;14.30;5.73;;;-2.20;99.90;;;;;;5039627;28;20425;-64
2024/01/15 02:40:33;;;;;;;16.80;6.20;;;-2.30;99.90;;;;;;5051992;28;20423;-64
2024/01/15 02:42:58;;;;;;;15.80;6.20;;;-2.30;99.90;;;;;;5051974;28;20432;-64
2024/01/15 02:45:24;;;;;;;14.70;6.10;;;-2.50;99.90;;;;;;5044503;28;20459;-64
2024/01/15 02:47:50;;;;;;;20.40;6.17;;;-2.50;99.90;;;;;;5055321;28;20273;-64
2024/01/15 02:50:16;;;;;;;17.20;6.17;;;-2.50;99.90;;;;;;5055834;28;20182;-64
2024/01/15 02:52:42;;;;;;;14.87;6.30;;;-2.50;99.90;;;;;;5055937;28;20220;-64
2024/01/15 02:55:08;;;;;;;23.60;5.70;;;-2.60;99.90;;;;;;5047436;28;20412;-64
2024/01/15 02:57:33;;;;;;;20.17;6.30;;;-2.60;99.90;;;;;;5047058;28;20178;-64
2024/01/15 02:59:59;;;;;;;19.73;6.20;;;-2.60;99.90;;;;;;5043925;28;20428;-64
2024/01/15 03:02:25;;;;;;;18.00;6.50;;;-2.60;99.90;;;;;;5055617;28;20201;-64
2024/01/15 03:04:50;;;;;;;18.17;5.97;;;-2.60;99.90;;;;;;5055015;28;20486;-64
2024/01/15 03:07:16;;;;;;;25.43;6.67;;;-2.60;99.90;;;;;;5048327;28;20199;-64
2024/01/15 03:09:41;;;;;;;17.13;6.60;;;-2.70;99.90;;;;;;5054932;28;20218;-64
2024/01/15 03:12:07;;;;;;;12.73;6.00;;;-2.60;99.90;;;;;;5055508;28;20212;-64
2024/01/15 03:14:33;;;;;;;16.80;6.93;;;-2.70;99.90;;;;;;5055268;28;20272;-64
2024/01/15 03:16:58;;;;;;;24.00;6.53;;;-2.60;99.90;;;;;;5055108;28;20186;-64
2024/01/15 03:19:24;;;;;;;22.10;7.80;;;-2.60;99.90;;;;;;5054684;28;20247;-64
2024/01/15 03:21:49;;;;;;;14.53;5.20;;;-2.60;99.90;;;;;;5055298;28;20194;-64
2024/01/15 03:24:15;;;;;;;21.03;7.20;;;-2.60;99.90;;;;;;5055204;28;20189;-64
2024/01/15 03:26:40;;;;;;;21.93;6.83;;;-2.40;99.90;;;;;;5055291;28;20268;-64
2024/01/15 03:29:07;;;;;;;19.07;7.07;;;-2.50;99.90;;;;;;5048097;28;20210;-64
2024/01/15 03:31:32;;;;;;;26.00;6.73;;;-2.50;99.90;;;;;;5055485;28;20566;-64
2024/01/15 03:33:58;;;;;;;11.10;5.47;;;-2.40;99.90;;;;;;5054574;28;20420;-64
2024/01/15 03:36:23;;;;;;;14.97;6.37;;;-2.30;99.90;;;;;;5054686;28;20181;-64
2024/01/15 03:38:49;;;;;;;15.50;4.87;;;-2.20;99.90;;;;;;5042995;28;20689;-64
2024/01/15 03:41:14;;;;;;;15.93;6.67;;;-2.10;99.90;;;;;;5054949;28;20272;-64
2024/01/15 03:43:40;;;;;;;15.27;6.03;;;-2.00;99.90;;;;;;5049850;28;20193;-64
2024/01/15 03:46:06;;;;;;;20.60;7.10;;;-1.90;99.90;;;;;;5049423;28;20217;-64
2024/01/15 03:48:32;;;;;;;18.33;5.80;;;-1.80;99.90;;;;;;5054233;28;20772;-64
2024/01/15 03:50:57;;;;;;;18.43;7.27;;;-1.80;99.90;;;;;;5054485;28;20420;-65
2024/01/15 03:53:23;;;;;;;19.23;6.60;;;-1.80;99.90;;;;;;5054357;28;20187;-64
2024/01/15 03:55:49;;;;;;;17.90;6.37;;;-1.80;99.90;;;;;;5041058;28;20186;-64
2024/01/15 03:58:15;;;;;;;13.53;5.73;;;-1.90;99.90;;;;;;5044186;28;20580;-63
2024/01/15 04:00:40;;;;;;;16.40;5.50;;;-1.80;99.90;;;;;;5048683;28;20415;-64
2024/01/15 04:03:06;;;;;;;29.57;6.87;;;-1.80;99.90;;;;;;5054384;28;20528;-64
2024/01/15 04:05:31;;;;;;;19.30;6.80;;;-1.70;99.90;;;;;;5053884;28;20229;-64
2024/01/15 04:07:57;;;;;;;17.23;6.80;;;-1.70;99.90;;;;;;5048877;28;20193;-64
2024/01/15 04:10:22;;;;;;;18.90;6.30;;;-1.70;99.90;;;;;;5054128;28;20190;-64
2024/01/15 04:12:48;;;;;;;24.53;7.80;;;-1.70;99.90;;;;;;5054473;28;20726;-64
2024/01/15 04:15:13;;;;;;;25.77;7.43;;;-1.70;99.90;;;;;;5054507;28;20641;-64
2024/01/15 04:17:39;;;;;;;19.13;6.60;;;-1.70;99.90;;;;;;5053985;28;20639;-64
2024/01/15 04:20:06;;;;;;;17.40;7.53;;;-1.70;99.90;;;;;;5053928;28;20247;-65
2024/01/15 04:22:32;;;;;;;19.10;7.67;;;-1.70;99.90;;;;;;5054113;28;20182;-64
2024/01/15 04:24:57;;;;;;;28.00;7.00;;;-1.80;99.90;;;;;;5054141;28;21030;-64
2024/01/15 04:27:23;;;;;;;19.10;7.03;;;-1.70;99.90;;;;;;5053089;28;20265;-64
2024/01/15 04:29:48;;;;;;;21.40;7.23;;;-1.70;99.90;;;;;;5047675;28;20271;-64
2024/01/15 04:32:14;;;;;;;15.17;5.77;;;-1.70;99.90;;;;;;5054036;28;20363;-64
2024/01/15 04:34:39;;;;;;;20.70;7.77;;;-1.70;99.90;;;;;;5053351;28;20199;-64
2024/01/15 04:37:05;;;;;;;19.00;7.60;;;-1.70;99.90;;;;;;5048289;28;20272;-64
2024/01/15 04:39:30;;;;;;;15.10;6.97;;;-1.60;99.90;;;;;;5047181;28;20192;-64
2024/01/15 04:41:56;;;;;;;18.50;7.07;;;-1.70;99.90;;;;;;5053797;28;20268;-65
2024/01/15 04:44:22;;;;;;;24.33;5.53;;;-1.70;99.90;;;;;;5043031;28;20190;-64
2024/01/15 04:46:47;;;;;;;17.10;6.70;;;-1.70;99.90;;;;;;5053499;28;20186;-64
2024/01/15 04:49:13;;;;;;;16.27;6.20;;;-1.60;99.90;;;;;;5053093;28;21046;-64
2024/01/15 04:51:38;;;;;;;12.20;5.90;;;-1.70;99.90;;;;;;5053535;28;20186;-65
2024/01/15 04:54:04;;;;;;;21.27;6.70;;;-1.60;99.90;;;;;;5053183;28;20196;-64
2024/01/15 04:56:29;;;;;;;19.83;7.30;;;-1.70;99.90;;;;;;5039862;28;20228;-63
2024/01/15 04:58:55;;;;;;;14.33;6.40;;;-1.70;99.90;;;;;;5038544;28;20197;-64
2024/01/15 05:01:20;;;;;;;14.03;6.60;;;-1.70;99.90;;;;;;5052881;28;20203;-64
2024/01/15 05:03:46;;;;;;;24.53;8.10;;;-1.70;99.90;;;;;;5052818;28;20182;-64
2024/01/15 05:06:11;;;;;;;25.90;8.70;;;-1.70;99.90;;;;;;5052830;28;20197;-64
2024/01/15 05:08:37;;;;;;;21.03;7.63;;;-1.70;99.90;;;;;;5047152;28;20232;-64
2024/01/15 05:11:02;;;;;;;21.30;7.60;;;-1.60;99.90;;;;;;5053381;28;20177;-64
2024/01/15 05:13:28;;;;;;;18.17;6.10;;;-1.60;99.90;;;;;;5053261;28;20661;-64
2024/01/15 05:15:53;;;;;;;18.30;7.57;;;-1.60;99.90;;;;;;5053010;28;20178;-64
2024/01/15 05:18:19;;;;;;;25.70;7.27;;;-1.60;99.90;;;;;;5052847;28;20631;-64
2024/01/15 05:20:45;;;;;;;19.23;7.03;;;-1.70;99.90;;;;;;5052934;28;20280;-64
2024/01/15 05:23:10;;;;;;;24.30;7.70;;;-1.60;99.90;;;;;;5053003;28;20303;-64
2024/01/15 05:25:36;;;;;;;16.67;6.80;;;-1.50;99.90;;;;;;5052903;28;20189;-64
2024/01/15 05:28:02;;;;;;;11.23;6.17;;;-1.70;99.90;;;;;;5046552;28;20190;-64
2024/01/15 05:30:27;;;;;;;20.73;7.83;;;-1.60;99.90;;;;;;5051448;28;20177;-64
2024/01/15 05:32:53;;;;;;;19.73;6.30;;;-1.60;99.90;;;;;;5052367;28;20472;-64
2024/01/15 05:35:18;;;;;;;21.13;6.20;;;-1.60;99.90;;;;;;5052705;28;20174;-64
2024/01/15 05:37:45;;;;;;;20.70;6.63;;;-1.60;99.90;;;;;;5041188;28;20681;-64
2024/01/15 05:40:14;;;;;;;14.80;6.23;;;-1.60;99.90;;;;;;5027410;28;20192;-64
2024/01/15 05:42:40;;;;;;;13.30;7.50;;;-1.60;99.90;;;;;;5045523;28;20467;-64
2024/01/15 05:45:06;;;;;;;16.80;6.70;;;-1.60;99.90;;;;;;5041206;28;20840;-64
2024/01/15 05:47:31;;;;;;;14.00;5.50;;;-1.70;99.90;;;;;;5052622;28;20420;-64
2024/01/15 05:49:57;;;;;;;16.87;6.93;;;-1.70;99.90;;;;;;5051991;28;20559;-64
2024/01/15 05:52:23;;;;;;;20.07;6.90;;;-1.70;99.90;;;;;;5052229;28;20204;-65
2024/01/15 05:54:49;;;;;;;17.60;6.70;;;-1.70;99.90;;;;;;5046409;28;20425;-65
2024/01/15 05:57:15;;;;;;;21.07;6.90;;;-1.60;99.90;;;;;;5042681;28;20217;-64
2024/01/15 05:59:41;;;;;;;18.63;7.03;;;-1.70;99.90;;;;;;5031803;28;20778;-64
2024/01/15 06:02:06;;;;;;;16.50;7.70;;;-1.80;99.90;;;;;;5044738;28;20224;-65
2024/01/15 06:04:32;;;;;;;18.67;6.70;;;-1.80;99.90;;;;;;5051479;28;20221;-65
2024/01/15 06:06:57;;;;;;;15.87;6.30;;;-1.80;99.90;;;;;;5047565;28;20236;-64
2024/01/15 06:09:23;;;;;;;12.70;6.20;;;-1.80;99.90;;;;;;5050719;28;20288;-64
2024/01/15 06:11:48;;;;;;;12.70;6.20;;;-1.90;99.90;;;;;;5052354;28;20208;-64
2024/01/15 06:14:14;;;;;;;18.20;7.50;;;-1.80;99.90;;;;;;5051968;28;20193;-64
2024/01/15 06:16:39;;;;;;;23.97;7.83;;;-1.80;99.90;;;;;;5052098;28;20213;-64
2024/01/15 06:19:05;;;;;;;23.50;8.40;;;-1.90;99.90;;;;;;5050624;28;20199;-64
2024/01/15 06:21:30;;;;;;;24.23;8.30;;;-1.90;99.90;;;;;;5051978;28;20200;-64
2024/01/15 06:23:56;;;;;;;12.80;6.63;;;-1.90;99.90;;;;;;5051822;28;20638;-65
2024/01/15 06:26:22;;;;;;;21.60;7.40;;;-1.90;99.90;;;;;;5033593;28;20206;-64
2024/01/15 06:28:48;;;;;;;24.73;8.10;;;-1.80;99.90;;;;;;5036124;28;20670;-64
2024/01/15 06:31:13;;;;;;;19.70;7.00;;;-1.90;99.90;;;;;;5050816;28;20424;-65
2024/01/15 06:33:40;;;;;;;21.43;7.07;;;-1.80;99.90;;;;;;5030104;28;20186;-65
2024/01/15 06:36:06;;;;;;;15.50;6.93;;;-1.80;99.90;;;;;;5052001;28;20265;-64
2024/01/15 06:38:31;;;;;;;24.93;7.00;;;-1.80;99.90;;;;;;5039622;28;20415;-64
2024/01/15 06:40:57;;;;;;;14.67;6.60;;;-1.70;99.90;;;;;;5051818;28;20417;-64
2024/01/15 06:43:22;;;;;;;19.13;6.90;;;-1.80;99.90;;;;;;5048779;28;20189;-64
2024/01/15 06:45:48;;;;;;;18.40;6.93;;;-1.80;99.90;;;;;;5044555;28;20221;-64
2024/01/15 06:48:16;;;;;;;23.50;7.20;;;-1.70;99.90;;;;;;5051164;28;20209;-64
2024/01/15 06:50:44;;;;;;;17.40;7.30;;;-1.70;99.90;;;;;;5051852;28;20190;-64
2024/01/15 06:53:10;;;;;;;12.70;5.40;;;-1.80;99.90;;;;;;5051583;28;20444;-64
2024/01/15 06:55:36;;;;;;;18.70;8.70;;;-1.70;99.90;;;;;;5039210;28;20422;-64
2024/01/15 06:58:02;;;;;;;14.37;5.47;;;-1.80;99.90;;;;;;5041315;28;20425;-64
2024/01/15 07:00:27;;;;;;;20.43;7.57;;;-1.70;99.90;;;;;;5038461;28;20181;-64
2024/01/15 07:02:53;;;;;;;19.77;7.70;;;-1.80;99.90;;;;;;5024956;28;20240;-64
2024/01/15 07:05:20;;;;;;;20.43;6.47;;;-1.70;99.90;;;;;;5043426;28;20538;-64
2024/01/15 07:07:46;;;;;;;25.20;6.90;;;-1.70;99.90;;;;;;5045566;28;20456;-65
2024/01/15 07:10:11;;;;;;;15.40;6.10;;;-1.70;99.90;;;;;;5050438;28;20496;-65
2024/01/15 07:12:37;;;;;;;17.93;6.73;;;-1.60;99.90;;;;;;5051817;28;20201;-65
2024/01/15 07:15:04;;;;;;;13.37;6.17;;;-1.70;99.90;;;;;;5051642;28;20186;-65
2024/01/15 07:17:29;;;;;;;18.87;6.67;;;-1.70;99.90;;;;;;5051636;28;20261;-65
2024/01/15 07:19:55;;;;;;;16.97;5.90;;;-1.70;99.90;;;;;;5051064;28;20524;-65
2024/01/15 07:22:20;;;;;;;11.00;4.60;;;-1.60;99.90;;;;;;5015349;28;20456;-64
2024/01/15 07:24:46;;;;;;;21.00;6.43;;;-1.60;99.90;;;;;;5025803;28;20567;-64
2024/01/15 07:27:11;;;;;;;13.63;5.10;;;-1.60;99.90;;;;;;5028042;28;20545;-64
2024/01/15 07:29:37;;;;;;;19.57;6.10;;;-1.50;99.90;;;;;;5021508;28;20214;-64
2024/01/15 07:32:03;;;;;;;12.40;5.73;;;-1.50;99.90;;;;;;5039790;28;20243;-64
2024/01/15 07:34:29;;;;;;;11.97;5.00;;;-1.50;99.90;;;;;;5054728;28;20205;-64
2024/01/15 07:36:54;;;;;;;16.97;6.50;;;-1.50;99.90;;;;;;5050933;28;20460;-64
2024/01/15 07:39:20;;;;;;;20.10;6.07;;;-1.50;99.90;;;;;;5046831;28;20198;-64
2024/01/15 07:41:45;;;;;;;18.03;6.23;;;-1.40;99.90;;;;;;5049769;28;20191;-65
2024/01/15 07:44:11;;;;;;;15.07;5.07;;;-1.50;99.90;;;;;;5031621;28;20183;-65
2024/01/15 07:46:36;;;;;;;14.40;6.63;;;-1.50;99.90;;;;;;5053077;28;20239;-65
2024/01/15 07:49:03;;;;;;;12.13;5.40;;;-1.40;99.90;;;;;;5054415;28;20209;-65
2024/01/15 07:51:29;;;;;;;9.77;5.20;;;-1.40;99.90;;;;;;5054701;28;20174;-64
2024/01/15 07:53:57;;;;;;;10.53;5.03;;;-1.40;99.90;;;;;;5054551;28;20424;-64
2024/01/15 07:56:23;;;;;;;16.37;5.30;;;-1.40;99.90;;;;;;5041375;28;20529;-64
2024/01/15 07:58:48;;;;;;;15.50;6.90;;;-1.40;99.90;;;;;;5038610;28;20436;-64
2024/01/15 08:01:14;;;;;;;14.20;4.23;;;-1.30;99.90;;;;;;5053178;28;20573;-64
2024/01/15 08:03:39;;;;;;;14.97;5.77;;;-1.40;99.90;;;;;;5054448;28;20194;-64
2024/01/15 08:06:05;;;;;;;17.63;5.43;;;-1.30;99.90;;;;;;5054659;28;20210;-64
2024/01/15 08:08:31;;;;;;;15.20;5.20;;;-1.30;99.90;;;;;;5048690;28;20210;-65
2024/01/15 08:10:56;;;;;;;12.90;4.67;;;-1.40;99.90;;;;;;5040857;28;20939;-65
2024/01/15 08:13:22;;;;;;;11.03;4.63;;;-1.40;99.90;;;;;;5054383;28;20257;-63
2024/01/15 08:15:47;;;;;;;10.93;4.80;;;-1.30;99.90;;;;;;5054273;28;20601;-64
2024/01/15 08:18:13;;;;;;;18.50;5.17;;;-1.10;99.90;;;;;;5053838;28;20182;-65
2024/01/15 08:20:40;;;;;;;19.47;6.87;;;-1.20;99.90;;;;;;5054269;28;20195;-66
2024/01/15 08:23:05;;;;;;;17.03;6.80;;;-1.10;99.90;;;;;;5052870;28;20204;-65
2024/01/15 08:25:31;;;;;;;30.50;11.53;;;-1.10;99.90;;;;;;5046313;28;20793;-65
2024/01/15 08:27:57;;;;;;;40.80;11.60;;;-1.10;99.90;;;;;;5030564;28;20193;-65
2024/01/15 08:30:27;;;;;;;15.17;5.57;;;-1.00;99.90;;;;;;5039710;28;20182;-65
2024/01/15 08:32:55;;;;;;;14.63;6.40;;;-0.90;99.90;;;;;;5053842;28;20408;-65
2024/01/15 08:35:25;;;;;;;14.30;4.90;;;-1.00;99.90;;;;;;5053820;28;20424;-64
2024/01/15 08:37:50;;;;;;;15.10;4.00;;;-1.00;99.90;;;;;;5042093;28;20413;-65
2024/01/15 08:40:16;;;;;;;8.50;3.53;;;-0.90;99.90;;;;;;5052531;28;20416;-64
2024/01/15 08:42:42;;;;;;;7.63;3.47;;;-0.90;99.90;;;;;;5052947;28;20683;-65
2024/01/15 08:45:09;;;;;;;6.43;3.17;;;-0.90;99.90;;;;;;5042216;28;20420;-65
2024/01/15 08:47:34;;;;;;;7.63;3.03;;;-0.80;99.90;;;;;;5053806;28;20194;-65
2024/01/15 08:50:00;;;;;;;7.47;2.97;;;-0.80;99.90;;;;;;5053204;28;20486;-65
2024/01/15 08:52:26;;;;;;;10.77;3.50;;;-0.70;99.90;;;;;;5053684;28;20181;-65
2024/01/15 08:54:52;;;;;;;10.50;3.50;;;-0.70;99.90;;;;;;5046984;28;20976;-65
2024/01/15 08:57:17;;;;;;;9.93;3.50;;;-0.60;99.90;;;;;;5044108;28;20186;-64
2024/01/15 08:59:43;;;;;;;7.30;3.43;;;-0.50;99.90;;;;;;5039602;28;20182;-65
2024/01/15 09:02:08;;;;;;;9.67;3.87;;;-0.40;99.90;;;;;;5053790;28;20740;-65
2024/01/15 09:04:34;;;;;;;16.13;3.40;;;-0.40;99.90;;;;;;5052910;28;20229;-66
2024/01/15 09:07:00;;;;;;;9.17;3.30;;;-0.50;99.90;;;;;;5035695;28;20197;-66
2024/01/15 09:09:25;;;;;;;6.73;3.37;;;-0.50;99.90;;;;;;5036195;28;20209;-66
2024/01/15 09:11:51;;;;;;;10.90;4.73;;;-0.50;99.90;;;;;;5053441;28;20257;-66
2024/01/15 09:14:17;;;;;;;6.17;2.80;;;-0.50;99.90;;;;;;5053167;28;20276;-66
2024/01/15 09:16:43;;;;;;;7.27;2.90;;;-0.50;99.90;;;;;;5052109;28;20906;-66
2024/01/15 09:19:08;;;;;;;5.50;3.00;;;-0.50;99.90;;;;;;5052843;28;20197;-66
2024/01/15 09:21:34;;;;;;;4.73;2.10;;;-0.40;99.90;;;;;;5053227;28;20516;-66
2024/01/15 09:23:59;;;;;;;7.50;3.13;;;-0.30;99.90;;;;;;5052915;28;20182;-66
2024/01/15 09:26:25;;;;;;;7.77;3.23;;;-0.30;99.90;;;;;;5033426;28;20199;-66
2024/01/15 09:28:50;;;;;;;8.53;3.73;;;-0.40;99.90;;;;;;5040327;28;20289;-65
2024/01/15 09:31:17;;;;;;;6.33;2.47;;;-0.30;99.90;;;;;;5045241;28;20214;-65
2024/01/15 09:33:43;;;;;;;6.93;2.90;;;-0.30;99.90;;;;;;5052419;28;20170;-65
2024/01/15 09:36:09;;;;;;;9.80;3.57;;;-0.30;99.90;;;;;;5037877;28;20429;-65
2024/01/15 09:38:34;;;;;;;8.27;3.30;;;-0.30;99.90;;;;;;5037414;28;20431;-65
2024/01/15 09:41:00;;;;;;;16.73;3.20;;;-0.30;99.90;;;;;;5029371;28;20612;-65
2024/01/15 09:43:26;;;;;;;10.20;3.90;;;-0.30;99.90;;;;;;5040432;28;20186;-66
2024/01/15 09:45:53;;;;;;;10.93;3.53;;;-0.30;99.90;;;;;;5045559;28;20178;-65
2024/01/15 09:48:18;;;;;;;18.70;4.70;;;-0.10;99.90;;;;;;5052114;28;20555;-66
2024/01/15 09:50:44;;;;;;;7.53;3.13;;;-0.10;99.90;;;;;;5034745;28;20425;-66
2024/01/15 09:53:10;;;;;;;10.07;4.00;;;-0.10;99.90;;;;;;5040208;28;20202;-66
2024/01/15 09:55:39;;;;;;;11.27;4.00;;;-0.10;99.90;;;;;;5038334;28;20178;-66
2024/01/15 09:58:05;;;;;;;6.37;2.60;;;0.00;99.90;;;;;;5041120;28;20480;-65
2024/01/15 10:00:32;;;;;;;6.67;3.10;;;0.00;99.90;;;;;;5044115;28;20424;-65
2024/01/15 10:03:00;;;;;;;7.50;3.20;;;0.10;99.90;;;;;;5050671;28;20661;-66
2024/01/15 10:05:26;;;;;;;6.60;2.60;;;0.10;99.90;;;;;;5051092;28;20831;-66
2024/01/15 10:07:54;;;;;;;9.70;2.97;;;0.00;99.90;;;;;;5041872;28;20984;-65
2024/01/15 10:10:21;;;;;;;5.80;2.80;;;0.00;99.90;;;;;;5044241;28;20872;-65
2024/01/15 10:12:47;;;;;;;8.90;3.60;;;0.00;99.90;;;;;;5050703;28;20512;-66
2024/01/15 10:15:13;;;;;;;11.90;2.60;;;0.00;99.90;;;;;;5051209;28;20852;-66
2024/01/15 10:17:39;;;;;;;10.47;3.60;;;0.00;99.90;;;;;;5049463;28;20182;-65
2024/01/15 10:20:11;;;;;;;10.93;3.73;;;0.00;99.90;;;;;;5042401;28;20765;-66
2024/01/15 10:22:46;;;;;;;4.77;2.80;;;0.00;99.90;;;;;;5025858;28;20972;-66
2024/01/15 10:25:13;;;;;;;8.30;2.80;;;0.00;99.90;;;;;;5047472;28;20954;-66
2024/01/15 10:27:40;;;;;;;9.13;4.47;;;-0.10;99.90;;;;;;5029570;28;20425;-66
2024/01/15 10:30:06;;;;;;;8.07;3.00;;;0.00;99.90;;;;;;5035898;28;20461;-65
2024/01/15 10:32:31;;;;;;;9.17;3.10;;;0.10;99.90;;;;;;5041069;28;20448;-65
2024/01/15 10:34:57;;;;;;;5.57;2.70;;;0.00;99.90;;;;;;5050373;28;20456;-65
2024/01/15 10:37:24;;;;;;;7.00;2.80;;;0.10;99.90;;;;;;5042655;28;20232;-65
2024/01/15 10:39:50;;;;;;;7.83;2.67;;;0.10;99.90;;;;;;5045410;28;20197;-65
2024/01/15 10:42:17;;;;;;;7.33;3.27;;;0.20;99.90;;;;;;5050664;28;20424;-65
2024/01/15 10:44:43;;;;;;;4.43;2.27;;;0.30;99.90;;;;;;5038793;28;20207;-65
2024/01/15 10:47:09;;;;;;;11.57;2.83;;;0.20;99.90;;;;;;5044198;28;20889;-65
2024/01/15 10:49:35;;;;;;;5.97;3.00;;;0.20;99.90;;;;;;5045260;28;20459;-66
2024/01/15 10:52:01;;;;;;;6.60;2.90;;;0.20;99.90;;;;;;5050298;28;20185;-66
2024/01/15 10:54:27;;;;;;;6.90;2.50;;;0.30;99.90;;;;;;5046300;28;20239;-65
2024/01/15 10:56:53;;;;;;;4.27;2.23;;;0.30;99.90;;;;;;5040086;28;20478;-66
2024/01/15 10:59:21;;;;;;;6.60;3.10;;;0.30;99.90;;;;;;5027872;28;20447;-66
2024/01/15 11:01:47;;;;;;;4.50;2.40;;;0.20;99.90;;;;;;5041070;28;20462;-65
2024/01/15 11:04:13;;;;;;;6.07;2.50;;;0.20;99.90;;;;;;5045810;28;20474;-65
2024/01/15 11:06:46;;;;;;;6.60;2.83;;;0.20;99.90;;;;;;5025550;28;20429;-68
2024/01/15 11:09:14;;;;;;;6.80;3.30;;;0.30;99.90;;;;;;5039195;28;20193;-68
2024/01/15 11:11:46;;;;;;;9.73;2.90;;;0.30;99.90;;;;;;5054139;28;20420;-67
2024/01/15 11:14:35;;;;;;;8.30;3.70;;;0.10;99.90;;;;;;5054219;28;20506;-65
2024/01/15 11:17:01;;;;;;;8.33;3.60;;;0.00;99.90;;;;;;5044052;28;20509;-65
2024/01/15 11:19:42;;;;;;;6.87;2.90;;;0.10;99.90;;;;;;5053261;28;20951;-67
2024/01/15 11:22:29;;;;;;;7.43;3.53;;;0.00;99.90;;;;;;5055245;28;20268;-72
2024/01/15 11:24:55;;;;;;;7.40;3.03;;;0.00;99.90;;;;;;5054707;28;20771;-70
2024/01/15 11:27:41;;;;;;;5.23;3.00;;;0.00;99.90;;;;;;5036095;28;20437;-69
2024/01/15 11:30:11;;;;;;;7.00;3.07;;;0.10;99.90;;;;;;5047220;28;20209;-69
2024/01/15 11:32:41;;;;;;;14.43;3.33;;;0.00;99.90;;;;;;5055216;28;20421;-72
2024/01/15 11:35:08;;;;;;;8.83;2.37;;;-0.10;99.90;;;;;;5054119;28;20446;-72
2024/01/15 11:37:52;;;;;;;10.03;3.27;;;0.00;99.90;;;;;;5054721;28;20767;-68
2024/01/15 11:40:22;;;;;;;9.43;2.83;;;0.00;99.90;;;;;;5053344;28;20438;-63
2024/01/15 11:42:49;;;;;;;6.87;2.83;;;0.00;99.90;;;;;;5051276;28;21232;-66
2024/01/15 11:45:21;;;;;;;9.97;3.30;;;-0.10;99.90;;;;;;5035234;28;20444;-66
2024/01/15 11:48:10;;;;;;;10.30;2.87;;;0.00;99.90;;;;;;5031331;28;20425;-66
2024/01/15 11:50:43;;;;;;;8.30;3.73;;;-0.10;99.90;;;;;;5032335;28;20457;-65
2024/01/15 11:53:34;;;;;;;11.57;3.90;;;0.00;99.90;;;;;;5032763;28;20496;-65
2024/01/15 11:56:02;;;;;;;9.60;3.77;;;-0.10;99.90;;;;;;5034100;28;20448;-65
2024/01/15 11:58:28;;;;;;;5.97;3.20;;;-0.20;99.90;;;;;;5032372;28;20433;-66
2024/01/15 12:00:54;;;;;;;6.53;2.60;;;-0.20;99.90;;;;;;5032772;28;20433;-66
2024/01/15 12:03:24;;;;;;;10.60;2.73;;;-0.20;99.90;;;;;;5044458;28;20420;-66
2024/01/15 12:05:51;;;;;;;8.53;3.23;;;-0.20;99.90;;;;;;5051448;28;20967;-65
2024/01/15 12:08:24;;;;;;;7.80;3.33;;;-0.40;99.90;;;;;;5047171;28;20478;-66
2024/01/15 12:10:49;;;;;;;7.60;3.73;;;-0.40;99.90;;;;;;5051719;28;20542;-66
2024/01/15 12:13:17;;;;;;;10.53;4.40;;;-0.40;99.90;;;;;;5053061;28;20904;-66
2024/01/15 12:15:43;;;;;;;5.77;3.80;;;-0.40;99.90;;;;;;5053039;28;20638;-66
2024/01/15 12:18:10;;;;;;;8.43;3.63;;;-0.40;99.90;;;;;;5034606;28;20493;-66
2024/01/15 12:20:36;;;;;;;9.73;3.50;;;-0.40;99.90;;;;;;5036429;28;20469;-65
2024/01/15 12:23:05;;;;;;;9.93;4.83;;;-0.30;99.90;;;;;;5043850;28;20470;-66
2024/01/15 12:25:32;;;;;;;8.77;4.03;;;-0.30;99.90;;;;;;5042781;28;21094;-66
2024/01/15 12:27:59;;;;;;;9.27;4.20;;;-0.40;99.90;;;;;;5036141;28;20430;-65
2024/01/15 12:30:27;;;;;;;8.53;3.23;;;-0.50;99.90;;;;;;5046945;28;20556;-66
2024/01/15 12:32:52;;;;;;;12.50;4.80;;;-0.40;99.90;;;;;;5042310;28;20428;-65
2024/01/15 12:35:18;;;;;;;9.30;3.10;;;-0.30;99.90;;;;;;5052268;28;20432;-65
2024/01/15 12:37:46;;;;;;;7.60;3.47;;;-0.40;99.90;;;;;;5041237;28;20304;-65